Time,TemperatureF,DewpointF,PressureIn,WindDirection,WindDirectionDegrees,WindSpeedMPH,WindSpeedGustMPH,Humidity,HourlyPrecipIn,Conditions,Clouds,dailyrainin,SolarRadiationWatts/m^2,SoftwareType,DateUTC
2013-06-19 00:02:00,67.0,67.0,30.01,NE,42,2.0,3.0,99,0.00,,,0.79,0.000000,,2013-06-19 04:02:00,
2013-06-19 00:10:00,70.0,70.0,30.02,North,2,2.0,10.0,99,0.00,,,0.79,0.000000,,2013-06-19 04:10:00,
2013-06-19 00:43:00,70.0,70.0,30.02,North,2,2.0,10.0,99,0.00,,,0.79,0.000000,,2013-06-19 04:43:00,
2013-06-19 00:53:00,70.0,70.0,30.02,North,2,2.0,10.0,99,0.00,,,0.79,0.000000,,2013-06-19 04:53:00,
2013-06-19 01:01:00,70.0,70.0,30.02,North,2,2.0,10.0,99,0.00,,,0.79,0.000000,,2013-06-19 05:01:00,
2013-06-19 01:10:00,70.0,70.0,30.03,NNE,32,4.0,8.0,99,0.00,,,0.75,0.000000,,2013-06-19 05:10:00,
2013-06-19 01:32:00,70.0,70.0,30.03,NNE,32,4.0,8.0,99,0.00,,,0.75,0.000000,,2013-06-19 05:32:00,
2013-06-19 01:43:00,70.0,70.0,30.03,NNE,32,4.0,8.0,99,0.00,,,0.75,0.000000,,2013-06-19 05:43:00,
2013-06-19 01:52:00,70.0,70.0,30.03,NNE,32,4.0,8.0,99,0.00,,,0.75,0.000000,,2013-06-19 05:52:00,
2013-06-19 02:02:00,70.0,70.0,30.03,NNE,32,4.0,8.0,99,0.00,,,0.75,0.000000,,2013-06-19 06:02:00,
2013-06-19 02:10:00,67.0,67.0,30.02,NW,311,4.0,5.0,99,0.00,,,0.75,0.000000,,2013-06-19 06:10:00,
2013-06-19 02:43:00,67.0,67.0,30.02,NW,311,4.0,5.0,99,0.00,,,0.75,0.000000,,2013-06-19 06:43:00,
2013-06-19 02:52:00,67.0,67.0,30.02,NW,311,4.0,5.0,99,0.00,,,0.75,0.000000,,2013-06-19 06:52:00,
2013-06-19 03:01:00,67.0,67.0,30.02,NW,311,4.0,5.0,99,0.00,,,0.75,0.000000,,2013-06-19 07:01:00,
2013-06-19 03:10:00,69.0,69.0,30.02,NNW,331,1.0,4.0,99,0.00,,,0.75,0.000000,,2013-06-19 07:10:00,
2013-06-19 03:33:00,69.0,69.0,30.02,NNW,331,1.0,4.0,99,0.00,,,0.75,0.000000,,2013-06-19 07:33:00,
2013-06-19 03:43:00,69.0,69.0,30.02,NNW,331,1.0,4.0,99,0.00,,,0.75,0.000000,,2013-06-19 07:43:00,
2013-06-19 03:53:00,69.0,69.0,30.02,NNW,331,1.0,4.0,99,0.00,,,0.75,0.000000,,2013-06-19 07:53:00,
2013-06-19 04:02:00,69.0,69.0,30.02,NNW,331,1.0,4.0,99,0.00,,,0.75,0.000000,,2013-06-19 08:02:00,
2013-06-19 04:10:00,69.0,68.0,30.04,North,356,3.0,7.0,98,0.00,,,0.74,0.000000,,2013-06-19 08:10:00,
2013-06-19 04:43:00,69.0,68.0,30.04,North,356,3.0,7.0,98,0.00,,,0.74,0.000000,,2013-06-19 08:43:00,
2013-06-19 04:54:00,69.0,68.0,30.04,North,356,3.0,7.0,98,0.00,,,0.74,0.000000,,2013-06-19 08:54:00,
2013-06-19 05:02:00,69.0,68.0,30.04,North,356,3.0,7.0,98,0.00,,,0.74,0.000000,,2013-06-19 09:02:00,
2013-06-19 05:10:00,68.0,67.0,30.04,NNW,338,2.0,5.0,97,0.00,,,0.74,0.000000,,2013-06-19 09:10:00,
2013-06-19 05:44:00,68.0,67.0,30.04,NNW,338,2.0,5.0,97,0.00,,,0.74,0.000000,,2013-06-19 09:44:00,
2013-06-19 05:53:00,68.0,67.0,30.04,NNW,338,2.0,5.0,97,0.00,,,0.74,0.000000,,2013-06-19 09:53:00,
2013-06-19 06:02:00,68.0,67.0,30.04,NNW,338,2.0,5.0,97,0.00,,,0.74,0.000000,,2013-06-19 10:02:00,
2013-06-19 06:10:00,67.0,66.0,30.06,North,2,1.0,7.0,97,0.00,,,0.74,0.000000,,2013-06-19 10:10:00,
2013-06-19 06:33:00,67.0,66.0,30.06,North,2,1.0,7.0,97,0.00,,,0.74,0.000000,,2013-06-19 10:33:00,
2013-06-19 06:43:00,67.0,66.0,30.06,North,2,1.0,7.0,97,0.00,,,0.74,0.000000,,2013-06-19 10:43:00,
2013-06-19 06:53:00,67.0,66.0,30.06,North,2,1.0,7.0,97,0.00,,,0.74,0.000000,,2013-06-19 10:53:00,
2013-06-19 07:02:00,67.0,66.0,30.06,North,2,1.0,7.0,97,0.00,,,0.74,0.000000,,2013-06-19 11:02:00,
2013-06-19 07:10:00,68.0,67.0,30.09,SW,235,1.0,2.0,95,0.00,,,0.74,32.000000,,2013-06-19 11:10:00,
2013-06-19 07:43:00,68.0,67.0,30.09,SW,235,1.0,2.0,95,0.00,,,0.74,32.000000,,2013-06-19 11:43:00,
2013-06-19 07:54:00,68.0,67.0,30.09,SW,235,1.0,2.0,95,0.00,,,0.74,32.000000,,2013-06-19 11:54:00,
2013-06-19 08:02:00,68.0,67.0,30.09,SW,235,1.0,2.0,95,0.00,,,0.74,32.000000,,2013-06-19 12:02:00,
2013-06-19 08:10:00,71.0,67.0,30.11,NNE,30,1.0,4.0,88,0.00,,,-99.99,178.000000,,2013-06-19 12:10:00,
2013-06-19 08:44:00,71.0,67.0,30.11,NNE,30,1.0,4.0,88,0.00,,,-99.99,178.000000,,2013-06-19 12:44:00,
2013-06-19 08:53:00,71.0,67.0,30.11,NNE,30,1.0,4.0,88,0.00,,,-99.99,178.000000,,2013-06-19 12:53:00,
2013-06-19 09:02:00,71.0,67.0,30.11,NNE,30,1.0,4.0,88,0.00,,,-99.99,178.000000,,2013-06-19 13:02:00,
2013-06-19 09:10:00,78.0,68.0,30.12,ENE,66,5.0,9.0,71,0.00,,,0.74,388.000000,,2013-06-19 13:10:00,
2013-06-19 09:43:00,78.0,68.0,30.12,ENE,66,5.0,9.0,71,0.00,,,0.74,388.000000,,2013-06-19 13:43:00,
2013-06-19 09:54:00,78.0,68.0,30.12,ENE,66,5.0,9.0,71,0.00,,,0.74,388.000000,,2013-06-19 13:54:00,
2013-06-19 10:02:00,78.0,68.0,30.12,ENE,66,5.0,9.0,71,0.00,,,0.74,388.000000,,2013-06-19 14:02:00,
2013-06-19 10:10:00,80.0,67.0,30.13,ENE,59,5.0,10.0,65,0.00,,,0.74,500.000000,,2013-06-19 14:10:00,
2013-06-19 10:44:00,80.0,67.0,30.13,ENE,59,5.0,10.0,65,0.00,,,0.74,500.000000,,2013-06-19 14:44:00,
2013-06-19 10:53:00,80.0,67.0,30.13,ENE,59,5.0,10.0,65,0.00,,,0.74,500.000000,,2013-06-19 14:53:00,
2013-06-19 11:02:00,80.0,67.0,30.13,ENE,59,5.0,10.0,65,0.00,,,0.74,500.000000,,2013-06-19 15:02:00,
2013-06-19 11:10:00,82.0,63.0,30.14,ENE,78,6.0,13.0,53,0.00,,,0.74,887.000000,,2013-06-19 15:10:00,
2013-06-19 11:43:00,82.0,63.0,30.14,ENE,78,6.0,13.0,53,0.00,,,0.74,887.000000,,2013-06-19 15:43:00,
2013-06-19 11:53:00,82.0,63.0,30.14,ENE,78,6.0,13.0,53,0.00,,,0.74,887.000000,,2013-06-19 15:53:00,
2013-06-19 12:01:00,82.0,63.0,30.14,ENE,78,6.0,13.0,53,0.00,,,0.74,887.000000,,2013-06-19 16:01:00,
2013-06-19 12:10:00,84.0,64.0,30.14,NE,41,4.0,13.0,52,0.00,,,0.71,999.000000,,2013-06-19 16:10:00,
2013-06-19 12:43:00,84.0,64.0,30.14,NE,41,4.0,13.0,52,0.00,,,0.71,999.000000,,2013-06-19 16:43:00,
2013-06-19 12:53:00,84.0,64.0,30.14,NE,41,4.0,13.0,52,0.00,,,0.71,999.000000,,2013-06-19 16:53:00,
2013-06-19 13:02:00,84.0,64.0,30.14,NE,41,4.0,13.0,52,0.00,,,0.71,999.000000,,2013-06-19 17:02:00,
2013-06-19 13:10:00,86.0,63.0,30.15,East,100,4.0,14.0,46,0.00,,,0.70,1116.000000,,2013-06-19 17:10:00,
2013-06-19 13:43:00,86.0,63.0,30.15,East,100,4.0,14.0,46,0.00,,,0.70,1116.000000,,2013-06-19 17:43:00,
2013-06-19 13:53:00,86.0,63.0,30.15,East,100,4.0,14.0,46,0.00,,,0.70,1116.000000,,2013-06-19 17:53:00,
2013-06-19 14:02:00,86.0,63.0,30.15,East,100,4.0,14.0,46,0.00,,,0.70,1116.000000,,2013-06-19 18:02:00,
2013-06-19 14:10:00,90.0,65.0,30.14,WSW,256,3.0,14.0,44,0.00,,,0.69,1053.000000,,2013-06-19 18:10:00,
2013-06-19 14:44:00,90.0,65.0,30.14,WSW,256,3.0,14.0,44,0.00,,,0.69,1053.000000,,2013-06-19 18:44:00,
2013-06-19 14:53:00,90.0,65.0,30.14,WSW,256,3.0,14.0,44,0.00,,,0.69,1053.000000,,2013-06-19 18:53:00,
2013-06-19 15:01:00,90.0,65.0,30.14,WSW,256,3.0,14.0,44,0.00,,,0.69,1053.000000,,2013-06-19 19:01:00,
2013-06-19 15:10:00,86.0,67.0,30.14,ENE,57,3.0,11.0,53,0.00,,,0.69,810.000000,,2013-06-19 19:10:00,
2013-06-19 15:43:00,86.0,67.0,30.14,ENE,57,3.0,11.0,53,0.00,,,0.69,810.000000,,2013-06-19 19:43:00,
2013-06-19 15:53:00,86.0,67.0,30.14,ENE,57,3.0,11.0,53,0.00,,,0.69,810.000000,,2013-06-19 19:53:00,
2013-06-19 16:02:00,86.0,67.0,30.14,ENE,57,3.0,11.0,53,0.00,,,0.69,810.000000,,2013-06-19 20:02:00,
2013-06-19 16:10:00,85.0,68.0,30.13,NNE,12,3.0,8.0,57,0.00,,,0.69,502.000000,,2013-06-19 20:10:00,
2013-06-19 16:43:00,85.0,68.0,30.13,NNE,12,3.0,8.0,57,0.00,,,0.69,502.000000,,2013-06-19 20:43:00,
2013-06-19 16:52:00,85.0,68.0,30.13,NNE,12,3.0,8.0,57,0.00,,,0.69,502.000000,,2013-06-19 20:52:00,
2013-06-19 17:02:00,85.0,68.0,30.13,NNE,12,3.0,8.0,57,0.00,,,0.69,502.000000,,2013-06-19 21:02:00,
2013-06-19 17:10:00,82.0,70.0,30.13,WNW,282,1.0,4.0,68,0.00,,,0.69,383.000000,,2013-06-19 21:10:00,
2013-06-19 17:44:00,82.0,70.0,30.13,WNW,282,1.0,4.0,68,0.00,,,0.69,383.000000,,2013-06-19 21:44:00,
2013-06-19 17:52:00,82.0,70.0,30.13,WNW,282,1.0,4.0,68,0.00,,,0.69,383.000000,,2013-06-19 21:52:00,
2013-06-19 18:02:00,82.0,70.0,30.13,WNW,282,1.0,4.0,68,0.00,,,0.69,383.000000,,2013-06-19 22:02:00,
2013-06-19 18:10:00,83.0,73.0,30.14,NE,50,2.0,5.0,72,0.00,,,0.32,288.000000,,2013-06-19 22:10:00,
2013-06-19 18:43:00,83.0,73.0,30.14,NE,50,2.0,5.0,72,0.00,,,0.32,288.000000,,2013-06-19 22:43:00,
2013-06-19 18:53:00,83.0,73.0,30.14,NE,50,2.0,5.0,72,0.00,,,0.32,288.000000,,2013-06-19 22:53:00,
2013-06-19 19:02:00,83.0,73.0,30.14,NE,50,2.0,5.0,72,0.00,,,0.32,288.000000,,2013-06-19 23:02:00,
2013-06-19 19:10:00,80.0,71.0,30.16,ENE,61,3.0,6.0,74,0.00,,,0.13,271.000000,,2013-06-19 23:10:00,
2013-06-19 19:43:00,80.0,71.0,30.16,ENE,61,3.0,6.0,74,0.00,,,0.13,271.000000,,2013-06-19 23:43:00,
2013-06-19 19:52:00,80.0,71.0,30.16,ENE,61,3.0,6.0,74,0.00,,,0.13,271.000000,,2013-06-19 23:52:00,
2013-06-19 20:01:00,80.0,71.0,30.16,ENE,61,3.0,6.0,74,0.00,,,0.13,271.000000,,2013-06-20 00:01:00,
2013-06-19 21:10:00,70.0,68.0,30.18,NE,42,2.0,5.0,95,-99.99,,,0.00,18.000000,,2013-06-20 01:10:00,
2013-06-19 22:10:00,68.0,67.0,30.21,SSW,205,1.0,4.0,98,0.00,,,0.00,0.000000,,2013-06-20 02:10:00,
2013-06-19 22:52:00,68.0,67.0,30.21,SSW,205,1.0,4.0,98,0.00,,,0.00,0.000000,,2013-06-20 02:52:00,
2013-06-19 23:02:00,68.0,67.0,30.21,SSW,205,1.0,4.0,98,0.00,,,0.00,0.000000,,2013-06-20 03:02:00,
2013-06-19 23:10:00,67.0,66.0,30.22,NE,43,1.0,2.0,98,0.00,,,0.00,0.000000,,2013-06-20 03:10:00,
2013-06-19 23:43:00,67.0,66.0,30.22,NE,43,1.0,2.0,98,0.00,,,0.00,0.000000,,2013-06-20 03:43:00,
2013-06-19 23:54:00,67.0,66.0,30.22,NE,43,1.0,2.0,98,0.00,,,0.00,0.000000,,2013-06-20 03:54:00,